Halle Kroellwitz, Germany

7:50 PM CET on January 30, 2015 (GMT +0100)
ISACHSEN100 | Change Station
CLOSE
Current Station
Personal Weather Station
Location: Halle, SACHSEN-ANHALT
Elevation: 305 ft
Nearby Weather Stations

Elev 305 ft 51.51 °N, 11.89 °E | Updated 11 minutes ago

Light Snow
Light Snow
34.1 °F
Feels Like 34 °F
N
2.0
Wind Variable Wind from SW

Today
High -- | Low -- °F
--% Chance of Precip.
Yesterday
High -- | Low -- °F
Precip. -- in
7:54 AM 4:57 PM
Waxing Gibbous, 84% visible
Pressure 28.80 in
Visibility 6.2 miles
Clouds Scattered Clouds 700 ft
Mostly Cloudy 1500 ft
Windchill 34 °F
Dew Point 32 °F
Humidity 91%
Rainfall 0.09 in
Snow Depth Not available.
UV 0 out of 12
Pollen Not available.
Air Quality Not available.
Flu Activity Not available.
METAR EDDP 301820Z 23012KT 9999 -SN SCT007 BKN015 M00/M01 Q0975 TEMPO BKN007

More Conditions Fewer Conditions

Pressure 28.80 in
Visibility 6.2 miles
Clouds Scattered Clouds 700 ft
Mostly Cloudy 1500 ft
Windchill 34 °F
Dew Point 32 °F
Humidity 91%
Rainfall 0.09 in
Snow Depth Not available.
UV 0 out of 12
Pollen Not available.
Air Quality Not available.
Flu Activity Not available.
METAR EDDP 301820Z 23012KT 9999 -SN SCT007 BKN015 M00/M01 Q0975 TEMPO BKN007

More Conditions Fewer Conditions

10-Day Weather Forecast

Almanac

Astronomy

Jan. 30, 2015 Rise Set
Actual Time
Civil Twilight
Nautical Twilight
Astronomical Twilight
Moon
Length of Visible Light
Length of Day
Tomorrow will be .
, % of the Moon is Illuminated

Today's Extremes

Country Highs Country Lows

Community

WunderPhotos

Upload Photos

1,791,859 photos uploaded!

WunderBlogs® & News

Nearby

Air Quality

  Air Quality AQ Index Pollutant
Not available.

Snow Depth

Station Depth Elevation

Earthquake Activity

City Distance Mag. Time & Date
Minimum magnitude displayed is 2.5.

Coastal Water Temperatures

Place Temperature

Nearby Weather Stations